Portada
METAR-TAF:

METAR-TAF

Aeroports :

Bombai, Índia

latitud: 19-07N, longitud: 072-51E, altitud: 8 m

Observació

L'informe es va fer fa 38 minuts, a les 03:00 UTC
Vent 1 kt del Est
Temperatura 30°C
Humitat 79%
Pressió 1009 hPa
Visibilitat: 2500 m

METAR: VABB 070300Z 08001KT 2500 HZFEW100 30/26 Q1009 NOSIG

Hora: 09:08 (03:38 UTC)

Pronòstic

L'informe es va fer fa 1 hora i 38 minuts, a les 02:00 UTC
Pronòstic vàlid del 07 a les 03 UTC al 07 a les 12 UTC
Vent 5 kt del Est/Nord-Est
Visibilitat: 3000 m
Escasses núvols a una alçada de 2000 ft
Núvols disperses a una alçada de 10000 ft
calitja
Evolucionant progressivament
l' 07 a les 06 UTC al 07 a les 08 UTC
Vent 12 kt del Oest
Visibilitat: 4000 m
Escasses núvols a una alçada de 2000 ft
fum

TAF: VABB 070200Z 0703/0712 07005KT 3000 HZ FEW020 SCT100 BECMG 0706/0708 28012KT 4000 FU FEW020

Observacions i pronòstics meteorològics de més de 4000 aeroports (METAR i TAF).

Les estacions disponibles són els punts grocs i vermells al mapa.

Posi el ratolí al punt desitjat per veure el nom de l'estació.

Feu clic per veure les observacions i els pronòstics meteorològics.

Per canviar el mapa: feu clic els botons verds amb una creu de color negre per apropar; al botó verd amb un guió per allunyar la imatge; o en les fletxes verdes per a mapes adjacents.


METAR-TAF: